Time;durP1;ratioP1;P1;durP2;ratioP2;P2;SDS_P1;SDS_P2;PMS_P1;PMS_P2;Temp;Humidity;BMP_temperature;BMP_pressure;BME280_temperature;BME280_humidity;BME280_pressure;Samples;Min_cycle;Max_cycle;Signal;HPM_P1;HPM_P2
2023/07/24 00:02:23;;;;;;;3.13;1.05;;;18.50;99.90;;;;;;5055982;28;20020;-75
2023/07/24 00:04:49;;;;;;;1.27;0.52;;;18.40;99.90;;;;;;5073740;28;20032;-76
2023/07/24 00:07:14;;;;;;;0.93;0.50;;;18.40;99.90;;;;;;5073874;28;20028;-75
2023/07/24 00:09:40;;;;;;;2.35;1.02;;;18.40;99.90;;;;;;5073815;28;20021;-75
2023/07/24 00:12:06;;;;;;;1.10;0.57;;;18.40;99.90;;;;;;5055909;28;20031;-75
2023/07/24 00:14:31;;;;;;;1.73;0.75;;;18.40;99.90;;;;;;5074145;28;20476;-76
2023/07/24 00:16:57;;;;;;;1.88;0.43;;;18.40;99.90;;;;;;5055805;28;20111;-75
2023/07/24 00:19:23;;;;;;;1.27;0.65;;;18.40;99.90;;;;;;5073542;28;20111;-75
2023/07/24 00:21:48;;;;;;;2.20;0.60;;;18.30;99.90;;;;;;5074144;28;20020;-75
2023/07/24 00:24:14;;;;;;;1.05;0.35;;;18.40;99.90;;;;;;5073413;28;20029;-75
2023/07/24 00:26:39;;;;;;;2.15;0.60;;;18.30;99.90;;;;;;5055513;28;20021;-75
2023/07/24 00:29:05;;;;;;;1.00;0.45;;;18.20;99.90;;;;;;5073443;28;20028;-75
2023/07/24 00:31:30;;;;;;;4.45;1.15;;;18.20;99.90;;;;;;5073912;28;20029;-76
2023/07/24 00:33:56;;;;;;;1.27;0.45;;;18.20;99.90;;;;;;5073378;28;20032;-75
2023/07/24 00:36:21;;;;;;;1.73;0.80;;;18.10;99.90;;;;;;5073332;28;20024;-75
2023/07/24 00:38:47;;;;;;;0.93;0.30;;;18.10;99.90;;;;;;5055358;28;20115;-74
2023/07/24 00:41:12;;;;;;;1.20;0.50;;;18.10;99.90;;;;;;5073910;28;20048;-75
2023/07/24 00:43:38;;;;;;;0.65;0.50;;;18.20;99.90;;;;;;5073740;28;20032;-75
2023/07/24 00:46:03;;;;;;;2.78;1.35;;;18.20;99.90;;;;;;5073302;28;20028;-76
2023/07/24 00:48:29;;;;;;;1.55;0.80;;;18.20;99.90;;;;;;5073138;28;20028;-74
2023/07/24 00:50:56;;;;;;;1.90;0.43;;;18.20;99.90;;;;;;5073320;28;20046;-75
2023/07/24 00:53:21;;;;;;;2.55;0.20;;;18.10;99.90;;;;;;5073174;28;20025;-75
2023/07/24 00:55:47;;;;;;;1.25;0.40;;;18.10;99.90;;;;;;5073734;28;20039;-75
2023/07/24 00:58:16;;;;;;;2.88;0.55;;;18.10;99.90;;;;;;5073009;28;20028;-74
2023/07/24 01:00:41;;;;;;;0.73;0.57;;;18.10;99.90;;;;;;5073137;28;20029;-76
2023/07/24 01:03:07;;;;;;;3.50;0.77;;;18.10;99.90;;;;;;5073099;28;20096;-73
2023/07/24 01:05:33;;;;;;;1.38;0.32;;;18.10;99.90;;;;;;5055565;28;20017;-74
2023/07/24 01:07:58;;;;;;;1.33;0.43;;;18.10;99.90;;;;;;5055152;28;20479;-75
2023/07/24 01:10:24;;;;;;;2.22;0.70;;;18.10;99.90;;;;;;5073161;28;20111;-75
2023/07/24 01:13:18;;;;;;;1.50;0.52;;;18.10;99.90;;;;;;5073053;28;20029;-75
2023/07/24 01:16:02;;;;;;;1.63;0.57;;;18.00;99.90;;;;;;5046276;28;20036;-75
2023/07/24 01:18:30;;;;;;;0.82;0.40;;;18.00;99.90;;;;;;5073456;28;20078;-75
2023/07/24 01:20:58;;;;;;;3.08;0.98;;;18.10;99.90;;;;;;5076830;28;20027;-75
2023/07/24 01:23:38;;;;;;;2.53;0.40;;;18.10;99.90;;;;;;5059033;28;20361;-75
2023/07/24 01:26:04;;;;;;;1.38;0.45;;;18.10;99.90;;;;;;5077029;28;20384;-75
2023/07/24 01:28:30;;;;;;;1.17;0.47;;;18.10;99.90;;;;;;5076895;28;20021;-75
2023/07/24 01:30:57;;;;;;;3.55;0.70;;;18.00;99.90;;;;;;5076791;28;20120;-75
2023/07/24 01:33:23;;;;;;;1.90;0.82;;;18.00;99.90;;;;;;5076778;28;20071;-75
2023/07/24 01:35:54;;;;;;;0.88;0.35;;;18.00;99.90;;;;;;5076752;28;20100;-75
2023/07/24 01:38:25;;;;;;;2.88;0.73;;;18.00;99.90;;;;;;5058707;28;20020;-75
2023/07/24 01:40:52;;;;;;;2.92;1.00;;;18.00;99.90;;;;;;5076679;28;20383;-75
2023/07/24 01:43:18;;;;;;;3.35;0.68;;;18.10;99.90;;;;;;5076522;28;20016;-75
2023/07/24 01:45:43;;;;;;;1.20;0.32;;;18.00;99.90;;;;;;5077139;28;20070;-75
2023/07/24 01:48:09;;;;;;;1.63;0.75;;;18.10;99.90;;;;;;5077083;28;20028;-75
2023/07/24 01:50:35;;;;;;;1.92;0.43;;;18.10;99.90;;;;;;5058649;28;20028;-75
2023/07/24 01:53:00;;;;;;;3.63;0.40;;;18.10;99.90;;;;;;5076450;28;20033;-75
2023/07/24 01:55:26;;;;;;;4.35;0.80;;;18.00;99.90;;;;;;5058415;28;20475;-75
2023/07/24 01:57:51;;;;;;;1.10;0.38;;;18.00;99.90;;;;;;5075936;28;20036;-75
2023/07/24 02:00:17;;;;;;;0.93;0.50;;;18.00;99.90;;;;;;5076823;28;20021;-75
2023/07/24 02:02:42;;;;;;;1.08;0.30;;;18.00;99.90;;;;;;5076155;28;20048;-75
2023/07/24 02:05:08;;;;;;;2.40;0.73;;;18.00;99.90;;;;;;5076105;28;20020;-75
2023/07/24 02:07:34;;;;;;;2.15;0.32;;;18.00;99.90;;;;;;5058322;28;20418;-75
2023/07/24 02:10:00;;;;;;;1.80;0.47;;;18.00;99.90;;;;;;5041465;28;20035;-75
2023/07/24 02:12:25;;;;;;;1.63;0.50;;;18.00;99.90;;;;;;5058122;28;20029;-75
2023/07/24 02:14:51;;;;;;;1.35;0.30;;;18.00;99.90;;;;;;5075842;28;20063;-75
2023/07/24 02:17:18;;;;;;;0.35;0.13;;;18.00;99.90;;;;;;5076524;28;20020;-75
2023/07/24 02:19:44;;;;;;;0.30;0.17;;;;;;;;;;5075944;28;20021;-75
2023/07/24 02:22:09;;;;;;;3.60;0.60;;;18.00;99.90;;;;;;5057964;28;20395;-75
2023/07/24 02:24:35;;;;;;;1.58;0.50;;;18.00;99.90;;;;;;5075875;28;20025;-75
2023/07/24 02:27:01;;;;;;;1.02;0.32;;;18.10;99.90;;;;;;5058234;28;20032;-75
2023/07/24 02:29:26;;;;;;;2.95;0.60;;;18.00;99.90;;;;;;5075578;28;20024;-74
2023/07/24 02:31:54;;;;;;;0.80;0.40;;;18.00;99.90;;;;;;5075920;28;20464;-75
2023/07/24 02:34:24;;;;;;;3.40;0.45;;;18.00;99.90;;;;;;5075586;28;20492;-74
2023/07/24 02:36:49;;;;;;;0.82;0.20;;;18.00;99.90;;;;;;5075624;28;20048;-75
2023/07/24 02:39:15;;;;;;;1.10;0.43;;;18.00;99.90;;;;;;5075490;28;20082;-76
2023/07/24 02:41:40;;;;;;;0.75;0.17;;;18.00;99.90;;;;;;5075498;28;20406;-75
2023/07/24 02:44:06;;;;;;;0.80;0.63;;;18.00;99.90;;;;;;5075318;28;20025;-75
2023/07/24 02:46:32;;;;;;;1.23;0.32;;;17.90;99.90;;;;;;5075589;28;20031;-76
2023/07/24 02:48:57;;;;;;;1.90;0.65;;;17.90;99.90;;;;;;5075466;28;20078;-75
2023/07/24 02:51:23;;;;;;;0.98;0.32;;;17.90;99.90;;;;;;5057497;28;20066;-76
2023/07/24 02:53:49;;;;;;;1.15;0.40;;;17.90;99.90;;;;;;5075181;28;20035;-75
2023/07/24 02:56:14;;;;;;;5.22;0.75;;;17.90;99.90;;;;;;5075795;28;20029;-75
2023/07/24 02:58:40;;;;;;;2.63;0.63;;;17.90;99.90;;;;;;5075751;28;20032;-75
2023/07/24 03:01:06;;;;;;;0.98;0.50;;;17.80;99.90;;;;;;5057282;28;20020;-75
2023/07/24 03:03:35;;;;;;;0.90;0.68;;;17.80;99.90;;;;;;5057145;28;20016;-76
2023/07/24 03:06:00;;;;;;;1.95;0.57;;;17.80;99.90;;;;;;5075578;28;20372;-75
2023/07/24 03:08:26;;;;;;;1.38;0.70;;;17.70;99.90;;;;;;5074801;28;20035;-75
2023/07/24 03:10:51;;;;;;;1.98;0.82;;;17.80;99.90;;;;;;5074860;28;20033;-76
2023/07/24 03:13:17;;;;;;;3.00;0.68;;;17.80;99.90;;;;;;5074845;28;20126;-75
2023/07/24 03:15:43;;;;;;;2.22;0.70;;;17.80;99.90;;;;;;5074906;28;20476;-76
2023/07/24 03:18:08;;;;;;;2.15;1.02;;;17.70;99.90;;;;;;5074760;28;20020;-75
2023/07/24 03:20:34;;;;;;;3.63;0.73;;;17.70;99.90;;;;;;5074841;28;20100;-75
2023/07/24 03:22:59;;;;;;;1.60;1.00;;;17.80;99.90;;;;;;5074756;28;20055;-74
2023/07/24 03:25:25;;;;;;;1.35;0.55;;;17.80;99.90;;;;;;5074657;28;20036;-75
2023/07/24 03:27:50;;;;;;;2.17;0.65;;;17.80;99.90;;;;;;5074643;28;20031;-75
2023/07/24 03:30:16;;;;;;;2.60;0.88;;;17.80;99.90;;;;;;5074494;28;20032;-75
2023/07/24 03:32:41;;;;;;;2.90;1.20;;;17.80;99.90;;;;;;5074527;28;20020;-74
2023/07/24 03:35:07;;;;;;;3.88;0.65;;;17.80;99.90;;;;;;5074360;28;20024;-76
2023/07/24 03:37:35;;;;;;;2.10;0.73;;;17.70;99.90;;;;;;5056398;28;20078;-75
2023/07/24 03:40:01;;;;;;;5.33;1.70;;;17.80;99.90;;;;;;5074358;28;20020;-76
2023/07/24 03:42:28;;;;;;;3.45;1.63;;;17.70;99.90;;;;;;5055601;28;20273;-75
2023/07/24 03:44:55;;;;;;;2.25;0.93;;;17.70;99.90;;;;;;5074206;28;20027;-75
2023/07/24 03:47:20;;;;;;;2.28;1.25;;;17.70;99.90;;;;;;5056318;28;20021;-76
2023/07/24 03:49:46;;;;;;;2.60;1.20;;;17.60;99.90;;;;;;5074282;28;20149;-75
2023/07/24 03:52:11;;;;;;;3.10;1.58;;;17.60;99.90;;;;;;5074200;28;20021;-76
2023/07/24 03:54:37;;;;;;;2.28;1.20;;;17.50;99.90;;;;;;5074071;28;20023;-76
2023/07/24 03:57:03;;;;;;;3.45;1.60;;;17.50;99.90;;;;;;5073961;28;20031;-76
2023/07/24 03:59:30;;;;;;;6.55;2.17;;;17.50;99.90;;;;;;5074604;28;20028;-76
2023/07/24 04:01:56;;;;;;;4.82;1.52;;;17.50;99.90;;;;;;5073954;28;20028;-76
2023/07/24 04:04:22;;;;;;;3.15;1.30;;;17.50;99.90;;;;;;5073932;28;20434;-75
2023/07/24 04:06:47;;;;;;;2.90;1.50;;;17.40;99.90;;;;;;5073818;28;20020;-76
2023/07/24 04:09:14;;;;;;;4.43;1.33;;;17.40;99.90;;;;;;5074393;28;20029;-76
2023/07/24 04:11:40;;;;;;;3.63;1.67;;;17.30;99.90;;;;;;5073717;28;20027;-76
2023/07/24 04:14:06;;;;;;;2.90;0.95;;;17.30;99.90;;;;;;5073669;28;20469;-76
2023/07/24 04:16:31;;;;;;;4.35;1.83;;;17.30;99.90;;;;;;5073578;28;20077;-75
2023/07/24 04:18:57;;;;;;;3.90;1.42;;;17.30;99.90;;;;;;5073561;28;20048;-75
2023/07/24 04:21:23;;;;;;;2.80;1.27;;;17.30;99.90;;;;;;5055673;28;20059;-75
2023/07/24 04:23:48;;;;;;;4.80;2.00;;;17.30;99.90;;;;;;5055446;28;20021;-75
2023/07/24 04:26:14;;;;;;;4.00;1.25;;;17.20;99.90;;;;;;5055536;28;20510;-75
2023/07/24 04:28:39;;;;;;;2.17;1.05;;;17.20;99.90;;;;;;5074071;28;20032;-75
2023/07/24 04:31:05;;;;;;;3.55;1.20;;;17.20;99.90;;;;;;5073446;28;20028;-75
2023/07/24 04:33:30;;;;;;;1.77;1.35;;;17.30;99.90;;;;;;5055551;28;20082;-75
2023/07/24 04:35:56;;;;;;;3.88;1.50;;;17.30;99.90;;;;;;5055543;28;20017;-75
2023/07/24 04:38:25;;;;;;;3.47;1.30;;;17.30;99.90;;;;;;5073329;28;20024;-75
2023/07/24 04:40:51;;;;;;;3.60;1.85;;;17.30;99.90;;;;;;5073435;28;20387;-75
2023/07/24 04:43:16;;;;;;;2.25;1.00;;;17.30;99.90;;;;;;5073246;28;20017;-75
2023/07/24 04:45:42;;;;;;;6.70;1.75;;;17.40;99.90;;;;;;5055208;28;20024;-75
2023/07/24 04:48:07;;;;;;;3.30;1.63;;;17.30;99.90;;;;;;5073204;28;20029;-75
2023/07/24 04:50:33;;;;;;;6.68;1.83;;;17.30;99.90;;;;;;5055312;28;20028;-75
2023/07/24 04:52:58;;;;;;;4.20;1.70;;;17.30;99.90;;;;;;5055137;28;20462;-75
2023/07/24 04:55:24;;;;;;;3.00;1.40;;;17.30;99.90;;;;;;5073198;28;20488;-75
2023/07/24 04:57:50;;;;;;;3.45;1.42;;;17.30;99.90;;;;;;5073120;28;20028;-75
2023/07/24 05:00:16;;;;;;;5.35;1.90;;;17.30;99.90;;;;;;5055101;28;20025;-75
2023/07/24 05:02:41;;;;;;;3.72;1.48;;;17.30;99.90;;;;;;5055245;28;20087;-75
2023/07/24 05:05:07;;;;;;;3.00;1.30;;;17.30;99.90;;;;;;5055483;28;20100;-75
2023/07/24 05:07:33;;;;;;;7.70;1.70;;;17.40;99.90;;;;;;5072994;28;20031;-75
2023/07/24 05:09:59;;;;;;;5.43;2.35;;;17.40;99.90;;;;;;5073010;28;20482;-75
2023/07/24 05:12:24;;;;;;;3.47;1.70;;;17.30;99.90;;;;;;5073031;28;20056;-74
2023/07/24 05:14:50;;;;;;;6.38;1.73;;;17.40;99.90;;;;;;5054983;28;20025;-75
2023/07/24 05:17:16;;;;;;;4.18;2.10;;;17.50;99.90;;;;;;5055017;28;20024;-76
2023/07/24 05:19:41;;;;;;;3.00;1.58;;;17.50;99.90;;;;;;5055023;28;20043;-76
2023/07/24 05:22:07;;;;;;;6.55;2.10;;;17.30;99.90;;;;;;5073000;28;20032;-76
2023/07/24 05:24:33;;;;;;;4.95;1.52;;;17.50;99.90;;;;;;5072944;28;20016;-76
2023/07/24 05:26:59;;;;;;;3.72;1.63;;;17.50;99.90;;;;;;5054962;28;20484;-76
2023/07/24 05:29:24;;;;;;;5.85;1.70;;;17.60;99.90;;;;;;5072831;28;20028;-76
2023/07/24 05:31:50;;;;;;;5.65;1.70;;;17.60;99.90;;;;;;5073371;28;20020;-76
2023/07/24 05:34:15;;;;;;;4.80;1.48;;;17.60;99.90;;;;;;5073072;28;20024;-76
2023/07/24 05:36:41;;;;;;;4.85;1.38;;;17.60;99.90;;;;;;5072813;28;20150;-75
2023/07/24 05:39:07;;;;;;;5.93;1.30;;;18.00;99.90;;;;;;5072694;28;20048;-76
2023/07/24 05:41:32;;;;;;;2.50;1.25;;;17.60;99.90;;;;;;5072812;28;20387;-74
2023/07/24 05:43:58;;;;;;;5.47;1.30;;;17.70;99.90;;;;;;5072677;28;20375;-76
2023/07/24 05:46:23;;;;;;;7.22;1.73;;;17.70;99.90;;;;;;5073505;28;20472;-76
2023/07/24 05:48:49;;;;;;;4.32;1.13;;;17.70;99.90;;;;;;5054638;28;20476;-76
2023/07/24 05:51:14;;;;;;;9.73;1.75;;;17.80;99.90;;;;;;5072602;28;20060;-76
2023/07/24 05:53:40;;;;;;;3.08;0.98;;;17.80;99.90;;;;;;5072591;28;20387;-75
2023/07/24 05:56:06;;;;;;;3.58;1.20;;;17.80;99.90;;;;;;5072632;28;20399;-76
2023/07/24 05:58:31;;;;;;;3.22;1.33;;;17.80;99.90;;;;;;5054550;28;20029;-76
2023/07/24 06:00:57;;;;;;;6.03;1.30;;;17.80;99.90;;;;;;5072572;28;20059;-76
2023/07/24 06:03:23;;;;;;;8.95;0.98;;;17.90;99.90;;;;;;5054596;28;20066;-76
2023/07/24 06:05:56;;;;;;;3.20;1.17;;;18.10;99.90;;;;;;5074242;28;20029;-76
2023/07/24 06:08:22;;;;;;;2.17;1.05;;;18.20;99.90;;;;;;5076116;28;20447;-76
2023/07/24 06:10:49;;;;;;;4.32;1.00;;;18.20;99.90;;;;;;5076037;28;20028;-75
2023/07/24 06:13:18;;;;;;;2.20;1.10;;;18.40;99.90;;;;;;5058083;28;20032;-75
2023/07/24 06:15:44;;;;;;;5.70;1.25;;;18.50;99.90;;;;;;5075937;28;20028;-76
2023/07/24 06:18:10;;;;;;;5.47;1.25;;;18.60;99.90;;;;;;5075966;28;20036;-76
2023/07/24 06:20:36;;;;;;;4.97;1.77;;;18.60;99.90;;;;;;5057904;28;20020;-75
2023/07/24 06:23:03;;;;;;;3.08;1.02;;;18.60;99.90;;;;;;5075831;28;20033;-75
2023/07/24 06:25:30;;;;;;;5.00;1.10;;;18.60;99.90;;;;;;5076314;28;20024;-76
2023/07/24 06:27:56;;;;;;;2.92;0.68;;;18.80;99.90;;;;;;5076224;28;20110;-75
2023/07/24 06:30:21;;;;;;;5.85;1.15;;;18.60;99.90;;;;;;5075730;28;20025;-75
2023/07/24 06:32:47;;;;;;;4.57;1.30;;;18.60;99.90;;;;;;5075763;28;20024;-75
2023/07/24 06:35:12;;;;;;;3.80;0.77;;;18.50;99.90;;;;;;5057580;28;20082;-76
2023/07/24 06:37:38;;;;;;;7.68;0.95;;;18.50;99.90;;;;;;5057692;28;20484;-76
2023/07/24 06:40:04;;;;;;;4.80;1.17;;;18.50;99.90;;;;;;5057786;28;20016;-76
2023/07/24 06:42:30;;;;;;;8.27;1.35;;;18.60;99.90;;;;;;5075522;28;20021;-75
2023/07/24 06:44:55;;;;;;;4.00;1.10;;;18.50;99.90;;;;;;5057441;28;20017;-74
2023/07/24 06:47:21;;;;;;;5.88;1.08;;;18.50;99.90;;;;;;5075474;28;20016;-75
2023/07/24 06:49:47;;;;;;;3.40;1.05;;;18.60;99.90;;;;;;5075427;28;20024;-75
2023/07/24 06:52:12;;;;;;;4.15;0.93;;;18.60;99.90;;;;;;5075617;28;20131;-74
2023/07/24 06:54:38;;;;;;;2.13;0.77;;;18.50;99.90;;;;;;5057274;28;20059;-75
2023/07/24 06:57:03;;;;;;;6.13;0.82;;;18.60;99.90;;;;;;5075118;28;20021;-76
2023/07/24 06:59:29;;;;;;;7.20;1.30;;;18.60;99.90;;;;;;5075050;28;20028;-75
2023/07/24 07:01:55;;;;;;;3.35;0.90;;;18.50;99.90;;;;;;5057222;28;20028;-75
2023/07/24 07:04:20;;;;;;;5.32;2.00;;;18.50;99.90;;;;;;5075109;28;20029;-74
2023/07/24 07:06:46;;;;;;;3.72;1.23;;;18.50;99.90;;;;;;5057307;28;20031;-73
2023/07/24 07:09:11;;;;;;;4.47;1.55;;;18.50;99.90;;;;;;5057105;28;20387;-74
2023/07/24 07:11:37;;;;;;;7.05;2.45;;;18.50;99.90;;;;;;5075732;28;20463;-77
2023/07/24 07:14:02;;;;;;;9.48;1.38;;;18.60;99.90;;;;;;5075150;28;20028;-77
2023/07/24 07:16:28;;;;;;;6.32;1.50;;;18.90;99.90;;;;;;5075222;28;20029;-77
2023/07/24 07:18:53;;;;;;;9.35;1.95;;;19.20;99.90;;;;;;5057374;28;20063;-77
2023/07/24 07:21:19;;;;;;;5.22;1.52;;;19.20;99.90;;;;;;5057299;28;20024;-77
2023/07/24 07:23:44;;;;;;;3.08;0.90;;;19.20;99.90;;;;;;5075178;28;20498;-77
2023/07/24 07:26:10;;;;;;;2.47;1.35;;;19.10;99.90;;;;;;5075258;28;20503;-76
2023/07/24 07:28:37;;;;;;;4.18;1.02;;;19.10;99.90;;;;;;5056829;28;20048;-76
2023/07/24 07:31:02;;;;;;;15.07;1.98;;;19.20;99.90;;;;;;5074830;28;20077;-76
2023/07/24 07:33:29;;;;;;;6.25;1.05;;;19.50;99.90;;;;;;5074589;28;20036;-77
2023/07/24 07:35:54;;;;;;;6.45;0.95;;;19.80;99.90;;;;;;5074603;28;20024;-77
2023/07/24 07:38:22;;;;;;;3.70;1.17;;;20.00;99.90;;;;;;5074694;28;20028;-76
2023/07/24 07:40:48;;;;;;;5.07;0.88;;;20.10;99.90;;;;;;5056613;28;20021;-78
2023/07/24 07:43:13;;;;;;;4.80;0.85;;;20.10;99.90;;;;;;5075085;28;20404;-76
2023/07/24 07:45:39;;;;;;;4.78;0.80;;;20.00;99.90;;;;;;5074632;28;20429;-77
2023/07/24 07:48:05;;;;;;;3.97;0.75;;;19.90;99.90;;;;;;5074608;28;20034;-77
2023/07/24 07:50:30;;;;;;;5.82;0.73;;;19.90;99.90;;;;;;5074215;28;20102;-76
2023/07/24 07:52:56;;;;;;;4.45;1.10;;;20.10;99.90;;;;;;5056440;28;20032;-77
2023/07/24 07:55:22;;;;;;;3.25;1.20;;;20.00;99.90;;;;;;5074266;28;20388;-77
2023/07/24 07:57:47;;;;;;;2.22;0.73;;;19.90;99.90;;;;;;5056336;28;20033;-77
2023/07/24 08:00:13;;;;;;;6.25;1.10;;;20.00;99.90;;;;;;5056643;28;20121;-77
2023/07/24 08:02:41;;;;;;;5.07;0.80;;;20.10;99.90;;;;;;5074217;28;20023;-77
2023/07/24 08:05:08;;;;;;;4.90;0.95;;;20.10;99.90;;;;;;5074584;28;20021;-76
2023/07/24 08:07:34;;;;;;;4.68;1.17;;;20.00;99.90;;;;;;5074250;28;20021;-77
2023/07/24 08:09:59;;;;;;;1.85;0.70;;;20.00;99.90;;;;;;5074183;28;20096;-77
2023/07/24 08:12:28;;;;;;;4.15;1.00;;;20.00;99.90;;;;;;5056131;28;20476;-76
2023/07/24 08:14:53;;;;;;;3.75;1.10;;;19.90;99.90;;;;;;5056167;28;20111;-77
2023/07/24 08:17:19;;;;;;;5.00;0.57;;;19.90;99.90;;;;;;5055898;28;20446;-77
2023/07/24 08:19:45;;;;;;;5.40;1.60;;;20.00;99.90;;;;;;5056045;28;20059;-77
2023/07/24 08:22:10;;;;;;;1.90;0.90;;;20.20;99.90;;;;;;5073707;28;20029;-77
2023/07/24 08:24:36;;;;;;;4.13;1.00;;;20.20;99.90;;;;;;5073989;28;20539;-76
2023/07/24 08:27:02;;;;;;;7.00;1.17;;;20.10;99.90;;;;;;5073634;28;20070;-76
2023/07/24 08:29:28;;;;;;;10.63;1.45;;;20.50;99.90;;;;;;5038901;28;20067;-77
2023/07/24 08:31:54;;;;;;;3.45;1.17;;;20.60;99.90;;;;;;5073701;28;20024;-77
2023/07/24 08:34:19;;;;;;;5.25;1.15;;;20.80;99.90;;;;;;5073373;28;20035;-77
2023/07/24 08:36:45;;;;;;;3.72;0.80;;;20.70;99.90;;;;;;5055517;28;20033;-77
2023/07/24 08:39:11;;;;;;;6.63;1.60;;;21.30;99.90;;;;;;5055384;28;20028;-76
2023/07/24 08:41:37;;;;;;;4.00;0.68;;;20.60;99.90;;;;;;5073658;28;20020;-77
2023/07/24 08:44:06;;;;;;;2.88;1.08;;;20.60;99.90;;;;;;5073481;28;20024;-77
2023/07/24 08:46:36;;;;;;;5.68;1.05;;;21.20;99.90;;;;;;5073502;28;20048;-77
2023/07/24 08:49:02;;;;;;;3.30;0.77;;;21.30;99.90;;;;;;5055562;28;20039;-76
2023/07/24 08:51:28;;;;;;;2.38;1.30;;;21.30;99.90;;;;;;5055363;28;20021;-76
2023/07/24 08:53:53;;;;;;;3.78;1.10;;;21.30;99.90;;;;;;5073491;28;20033;-77
2023/07/24 08:56:19;;;;;;;4.03;1.58;;;20.90;99.90;;;;;;5055355;28;20025;-77
2023/07/24 08:58:45;;;;;;;5.30;1.65;;;20.90;99.90;;;;;;5073471;28;20033;-78
2023/07/24 09:01:11;;;;;;;3.92;1.05;;;20.70;99.90;;;;;;5073430;28;20017;-77
2023/07/24 09:03:36;;;;;;;5.07;0.88;;;20.60;99.90;;;;;;5073246;28;20021;-77
2023/07/24 09:06:03;;;;;;;2.60;0.90;;;20.50;99.90;;;;;;5073168;28;20112;-76
2023/07/24 09:08:33;;;;;;;4.50;1.10;;;20.50;99.90;;;;;;5073247;28;20025;-77
2023/07/24 09:11:00;;;;;;;3.13;0.75;;;20.40;99.90;;;;;;5073025;28;20364;-77
2023/07/24 09:13:26;;;;;;;2.20;0.98;;;20.40;99.90;;;;;;5073479;28;20036;-76
2023/07/24 09:15:52;;;;;;;4.05;1.05;;;20.50;99.90;;;;;;5073831;28;20495;-77
2023/07/24 09:18:18;;;;;;;3.72;1.30;;;20.80;99.90;;;;;;5055409;28;20021;-77
2023/07/24 09:20:44;;;;;;;2.72;1.13;;;20.60;99.90;;;;;;5055323;28;20013;-77
2023/07/24 09:23:12;;;;;;;4.80;1.17;;;20.60;99.90;;;;;;5073181;28;20024;-78
2023/07/24 09:25:40;;;;;;;5.00;1.38;;;20.60;99.90;;;;;;5073002;28;20099;-77
2023/07/24 09:28:18;;;;;;;6.50;1.13;;;20.50;99.90;;;;;;5072934;28;20043;-77
2023/07/24 09:30:57;;;;;;;2.60;1.33;;;20.50;99.90;;;;;;5072985;28;20025;-77
2023/07/24 09:33:33;;;;;;;6.60;1.55;;;20.50;99.90;;;;;;5055160;28;20025;-77
2023/07/24 09:36:04;;;;;;;6.28;1.65;;;20.40;99.90;;;;;;5073348;28;20024;-77
2023/07/24 09:38:30;;;;;;;4.05;1.92;;;20.30;99.90;;;;;;5073486;28;20040;-77
2023/07/24 09:40:57;;;;;;;3.80;2.05;;;20.30;99.90;;;;;;5040564;28;20024;-76
2023/07/24 09:43:25;;;;;;;5.85;2.10;;;20.30;99.90;;;;;;5076878;28;20035;-76
2023/07/24 09:45:52;;;;;;;6.85;2.65;;;20.30;99.90;;;;;;5076831;28;20018;-77
2023/07/24 09:48:19;;;;;;;1.83;1.05;;;20.20;99.90;;;;;;5076779;28;20104;-77
2023/07/24 09:50:46;;;;;;;4.38;1.40;;;20.40;99.90;;;;;;5076655;28;20016;-76
2023/07/24 09:53:54;;;;;;;4.05;1.63;;;20.60;99.90;;;;;;5076650;28;20497;-78
2023/07/24 09:56:22;;;;;;;3.97;1.55;;;20.50;99.90;;;;;;5076877;28;20048;-76
2023/07/24 09:58:49;;;;;;;3.55;1.23;;;20.60;99.90;;;;;;5076505;28;20550;-77
2023/07/24 10:01:16;;;;;;;5.35;1.92;;;20.90;99.90;;;;;;5058557;28;20111;-77
2023/07/24 10:03:49;;;;;;;5.18;0.80;;;21.20;99.90;;;;;;5076252;28;20024;-77
2023/07/24 10:06:18;;;;;;;3.00;0.93;;;21.30;99.90;;;;;;5058412;28;20016;-77
2023/07/24 10:08:44;;;;;;;5.70;1.23;;;21.10;99.90;;;;;;5058468;28;20020;-76
2023/07/24 10:11:13;;;;;;;4.13;0.93;;;20.90;99.90;;;;;;5058272;28;20098;-77
2023/07/24 10:13:40;;;;;;;5.07;0.73;;;20.70;99.90;;;;;;5058224;28;20048;-77
2023/07/24 10:16:06;;;;;;;5.03;1.35;;;20.60;99.90;;;;;;5076201;28;20021;-77
2023/07/24 10:18:41;;;;;;;3.50;1.13;;;20.70;99.90;;;;;;5076279;28;20107;-77
2023/07/24 10:21:08;;;;;;;4.22;1.05;;;20.80;99.90;;;;;;5058468;28;20017;-75
2023/07/24 10:23:35;;;;;;;2.47;1.20;;;20.80;99.90;;;;;;5075834;28;20079;-76
2023/07/24 10:26:05;;;;;;;7.95;2.38;;;21.00;99.90;;;;;;5057969;28;20027;-78
2023/07/24 10:28:38;;;;;;;6.00;1.75;;;21.40;99.90;;;;;;5075854;28;20028;-77
2023/07/24 10:31:08;;;;;;;5.70;1.55;;;21.80;99.90;;;;;;5058062;28;20462;-76
2023/07/24 10:33:35;;;;;;;7.18;1.35;;;22.00;99.90;;;;;;5075817;28;20020;-77
2023/07/24 10:36:05;;;;;;;5.18;2.15;;;22.10;99.90;;;;;;5075845;28;20020;-76
2023/07/24 10:38:39;;;;;;;6.07;1.08;;;22.40;99.90;;;;;;5058969;28;20032;-76
2023/07/24 10:41:06;;;;;;;2.45;0.95;;;22.40;99.90;;;;;;5057689;28;20024;-77
2023/07/24 10:43:49;;;;;;;4.68;1.30;;;22.40;99.90;;;;;;5057629;28;20062;-77
2023/07/24 10:46:18;;;;;;;6.25;1.80;;;22.60;99.90;;;;;;5075652;28;20025;-77
2023/07/24 10:48:49;;;;;;;1.65;0.77;;;22.90;99.90;;;;;;5057648;28;20027;-77
2023/07/24 10:51:15;;;;;;;3.53;1.42;;;22.80;99.90;;;;;;5075534;28;20395;-76
2023/07/24 10:53:47;;;;;;;7.22;1.92;;;22.80;99.90;;;;;;5075328;28;20021;-76
2023/07/24 10:56:13;;;;;;;3.00;1.50;;;22.80;99.90;;;;;;5075476;28;20028;-76
2023/07/24 10:58:39;;;;;;;2.97;0.88;;;22.70;99.90;;;;;;5075227;28;20033;-77
2023/07/24 11:01:06;;;;;;;2.97;1.48;;;22.80;99.90;;;;;;5075202;28;20025;-77
2023/07/24 11:03:32;;;;;;;2.50;1.17;;;22.60;99.90;;;;;;5057322;28;20038;-77
2023/07/24 11:05:58;;;;;;;4.13;1.00;;;22.50;99.90;;;;;;5075258;28;20024;-77
2023/07/24 11:08:24;;;;;;;6.70;1.65;;;22.50;99.90;;;;;;5075260;28;20480;-77
2023/07/24 11:10:51;;;;;;;8.60;1.73;;;22.70;99.90;;;;;;5057089;28;20066;-76
2023/07/24 11:13:20;;;;;;;2.97;0.90;;;22.70;99.90;;;;;;5074920;28;20055;-77
2023/07/24 11:15:45;;;;;;;6.13;1.55;;;22.80;99.90;;;;;;5074995;28;20031;-76
2023/07/24 11:18:12;;;;;;;3.15;1.10;;;22.70;99.90;;;;;;5075088;28;20028;-77
2023/07/24 11:20:46;;;;;;;1.85;1.17;;;23.00;99.90;;;;;;5074859;28;20040;-77
2023/07/24 11:23:12;;;;;;;2.58;0.82;;;23.30;99.90;;;;;;5074782;28;20036;-76
2023/07/24 11:25:38;;;;;;;5.50;1.73;;;23.40;99.90;;;;;;5075162;28;20399;-76
2023/07/24 11:28:08;;;;;;;7.63;1.20;;;23.30;99.90;;;;;;5074673;28;20028;-77
2023/07/24 11:30:34;;;;;;;2.08;0.75;;;23.00;99.90;;;;;;5074643;28;20056;-77
2023/07/24 11:33:02;;;;;;;3.75;1.38;;;22.80;99.90;;;;;;5056872;28;20395;-77
2023/07/24 11:35:28;;;;;;;2.30;1.02;;;22.70;99.90;;;;;;5056594;28;20074;-76
2023/07/24 11:37:54;;;;;;;5.95;1.20;;;22.70;99.90;;;;;;5074692;28;20108;-76
2023/07/24 11:40:20;;;;;;;6.40;1.83;;;23.00;99.90;;;;;;5074520;28;20020;-76
2023/07/24 11:42:47;;;;;;;3.08;1.27;;;23.00;99.90;;;;;;5074544;28;20032;-76
2023/07/24 11:45:13;;;;;;;2.40;0.93;;;22.80;99.90;;;;;;5056364;28;20017;-77
2023/07/24 11:47:43;;;;;;;4.03;1.13;;;22.50;99.90;;;;;;5074386;28;20044;-76
2023/07/24 11:50:09;;;;;;;5.13;1.35;;;22.10;99.90;;;;;;5056710;28;20082;-76
2023/07/24 11:52:40;;;;;;;1.50;0.63;;;22.20;99.90;;;;;;5074326;28;20029;-77
2023/07/24 11:55:07;;;;;;;2.65;0.93;;;22.30;99.90;;;;;;5056289;28;20017;-77
2023/07/24 11:57:32;;;;;;;4.68;0.70;;;22.60;99.90;;;;;;5056144;28;20036;-76
2023/07/24 11:59:58;;;;;;;4.47;1.38;;;22.90;99.90;;;;;;5074734;28;20016;-77
2023/07/24 12:02:27;;;;;;;3.90;0.70;;;22.80;99.90;;;;;;5073672;28;20029;-77
2023/07/24 12:04:56;;;;;;;6.35;1.17;;;22.70;99.90;;;;;;5073696;28;20094;-77
2023/07/24 12:07:22;;;;;;;;;;;22.50;99.90;;;;;;5056619;28;20021;-77
2023/07/24 12:09:52;;;;;;;3.72;1.58;;;22.20;99.90;;;;;;5056122;28;19905;-76
2023/07/24 12:12:18;;;;;;;2.92;0.93;;;21.90;99.90;;;;;;5073775;28;20484;-77
2023/07/24 12:14:43;;;;;;;9.07;2.20;;;21.70;99.90;;;;;;5055806;28;20086;-76
2023/07/24 12:17:12;;;;;;;4.00;1.33;;;21.70;99.90;;;;;;5073661;28;20055;-77
2023/07/24 12:19:38;;;;;;;5.25;0.63;;;21.70;99.90;;;;;;5073752;28;20033;-77
2023/07/24 12:22:04;;;;;;;6.30;2.28;;;21.60;99.90;;;;;;5073852;28;20017;-77
2023/07/24 12:24:29;;;;;;;5.95;2.47;;;21.40;99.90;;;;;;5073804;28;20025;-76
2023/07/24 12:26:55;;;;;;;9.50;3.00;;;21.00;99.90;;;;;;5073992;28;20404;-77
2023/07/24 12:29:20;;;;;;;10.90;3.63;;;20.70;99.90;;;;;;5074107;28;20150;-77
2023/07/24 12:31:46;;;;;;;4.53;1.15;;;20.30;99.90;;;;;;5073577;28;20031;-76
2023/07/24 12:34:11;;;;;;;2.28;1.23;;;20.00;99.90;;;;;;5055549;28;20020;-76
2023/07/24 12:36:37;;;;;;;5.28;1.33;;;19.60;99.90;;;;;;5055673;28;20024;-76
2023/07/24 12:39:08;;;;;;;9.63;1.35;;;19.40;99.90;;;;;;5073408;28;20033;-76
2023/07/24 12:41:33;;;;;;;6.30;2.83;;;19.20;99.90;;;;;;5073687;28;20024;-76
2023/07/24 12:43:59;;;;;;;6.50;3.08;;;19.20;99.90;;;;;;5073592;28;20040;-76
2023/07/24 12:46:25;;;;;;;6.65;3.83;;;19.20;99.90;;;;;;5055339;28;20075;-76